sensor_id;sensor_type;location;lat;lon;timestamp;temperature;humidity
82901;DHT22;72673;50.822;3.280;2023-09-18T00:00:48;21.60;76.90
82901;DHT22;72673;50.822;3.280;2023-09-18T00:03:18;21.70;76.30
82901;DHT22;72673;50.822;3.280;2023-09-18T00:05:46;21.80;75.80
82901;DHT22;72673;50.822;3.280;2023-09-18T00:08:17;21.90;75.60
82901;DHT22;72673;50.822;3.280;2023-09-18T00:10:46;21.90;75.10
82901;DHT22;72673;50.822;3.280;2023-09-18T00:13:13;22.10;74.70
82901;DHT22;72673;50.822;3.280;2023-09-18T00:15:38;22.10;74.90
82901;DHT22;72673;50.822;3.280;2023-09-18T00:18:06;22.20;74.70
82901;DHT22;72673;50.822;3.280;2023-09-18T00:20:32;22.10;74.70
82901;DHT22;72673;50.822;3.280;2023-09-18T00:22:58;22.00;74.80
82901;DHT22;72673;50.822;3.280;2023-09-18T00:25:24;22.00;75.10
82901;DHT22;72673;50.822;3.280;2023-09-18T00:27:49;22.10;74.60
82901;DHT22;72673;50.822;3.280;2023-09-18T00:30:17;22.00;75.10
82901;DHT22;72673;50.822;3.280;2023-09-18T00:32:43;22.00;75.40
82901;DHT22;72673;50.822;3.280;2023-09-18T00:35:08;22.00;75.10
82901;DHT22;72673;50.822;3.280;2023-09-18T00:37:34;22.10;74.90
82901;DHT22;72673;50.822;3.280;2023-09-18T00:40:02;22.30;74.00
82901;DHT22;72673;50.822;3.280;2023-09-18T00:42:27;22.30;73.80
82901;DHT22;72673;50.822;3.280;2023-09-18T00:44:53;22.30;73.90
82901;DHT22;72673;50.822;3.280;2023-09-18T00:47:19;22.30;74.30
82901;DHT22;72673;50.822;3.280;2023-09-18T00:49:48;22.50;73.40
82901;DHT22;72673;50.822;3.280;2023-09-18T00:52:14;22.60;72.40
82901;DHT22;72673;50.822;3.280;2023-09-18T00:54:40;22.80;71.40
82901;DHT22;72673;50.822;3.280;2023-09-18T00:57:08;22.70;71.70
82901;DHT22;72673;50.822;3.280;2023-09-18T00:59:34;22.60;72.50
82901;DHT22;72673;50.822;3.280;2023-09-18T01:02:00;22.20;74.20
82901;DHT22;72673;50.822;3.280;2023-09-18T01:04:26;21.90;76.00
82901;DHT22;72673;50.822;3.280;2023-09-18T01:06:54;21.80;76.60
82901;DHT22;72673;50.822;3.280;2023-09-18T01:09:22;21.80;76.90
82901;DHT22;72673;50.822;3.280;2023-09-18T01:14:20;21.50;78.30
82901;DHT22;72673;50.822;3.280;2023-09-18T01:16:57;21.50;78.20
82901;DHT22;72673;50.822;3.280;2023-09-18T01:19:52;21.60;77.40
82901;DHT22;72673;50.822;3.280;2023-09-18T01:22:19;21.50;78.60
82901;DHT22;72673;50.822;3.280;2023-09-18T01:24:46;21.80;77.00
82901;DHT22;72673;50.822;3.280;2023-09-18T01:27:17;21.70;76.10
82901;DHT22;72673;50.822;3.280;2023-09-18T01:29:44;21.80;76.20
82901;DHT22;72673;50.822;3.280;2023-09-18T01:32:09;21.60;77.20
82901;DHT22;72673;50.822;3.280;2023-09-18T01:34:41;21.40;78.10
82901;DHT22;72673;50.822;3.280;2023-09-18T01:37:09;21.50;77.50
82901;DHT22;72673;50.822;3.280;2023-09-18T01:39:36;21.50;77.80
82901;DHT22;72673;50.822;3.280;2023-09-18T01:42:04;21.30;78.80
82901;DHT22;72673;50.822;3.280;2023-09-18T01:44:35;21.30;78.40
82901;DHT22;72673;50.822;3.280;2023-09-18T01:47:07;21.60;77.00
82901;DHT22;72673;50.822;3.280;2023-09-18T01:49:35;21.70;75.90
82901;DHT22;72673;50.822;3.280;2023-09-18T01:52:03;21.40;77.50
82901;DHT22;72673;50.822;3.280;2023-09-18T01:54:29;21.40;77.20
82901;DHT22;72673;50.822;3.280;2023-09-18T01:56:55;21.20;78.10
82901;DHT22;72673;50.822;3.280;2023-09-18T01:59:21;21.30;77.20
82901;DHT22;72673;50.822;3.280;2023-09-18T02:01:48;21.40;76.30
82901;DHT22;72673;50.822;3.280;2023-09-18T02:04:14;21.50;76.00
82901;DHT22;72673;50.822;3.280;2023-09-18T02:06:39;21.70;75.00
82901;DHT22;72673;50.822;3.280;2023-09-18T02:09:05;21.50;75.70
82901;DHT22;72673;50.822;3.280;2023-09-18T02:11:36;21.50;75.20
82901;DHT22;72673;50.822;3.280;2023-09-18T02:14:03;21.50;75.00
82901;DHT22;72673;50.822;3.280;2023-09-18T02:16:29;21.40;75.30
82901;DHT22;72673;50.822;3.280;2023-09-18T02:18:55;21.40;74.80
82901;DHT22;72673;50.822;3.280;2023-09-18T02:21:22;21.40;74.80
82901;DHT22;72673;50.822;3.280;2023-09-18T02:23:51;21.30;74.80
82901;DHT22;72673;50.822;3.280;2023-09-18T02:26:18;21.20;75.40
82901;DHT22;72673;50.822;3.280;2023-09-18T02:28:44;21.00;76.30
82901;DHT22;72673;50.822;3.280;2023-09-18T02:31:10;20.90;76.60
82901;DHT22;72673;50.822;3.280;2023-09-18T02:33:37;20.90;76.50
82901;DHT22;72673;50.822;3.280;2023-09-18T02:36:02;20.80;76.80
82901;DHT22;72673;50.822;3.280;2023-09-18T02:38:28;20.70;77.20
82901;DHT22;72673;50.822;3.280;2023-09-18T02:40:55;20.80;76.60
82901;DHT22;72673;50.822;3.280;2023-09-18T02:43:22;20.80;76.90
82901;DHT22;72673;50.822;3.280;2023-09-18T02:45:49;20.90;76.20
82901;DHT22;72673;50.822;3.280;2023-09-18T02:48:15;20.80;76.50
82901;DHT22;72673;50.822;3.280;2023-09-18T02:50:41;20.80;76.80
82901;DHT22;72673;50.822;3.280;2023-09-18T02:53:11;20.70;76.80
82901;DHT22;72673;50.822;3.280;2023-09-18T02:55:37;20.60;77.20
82901;DHT22;72673;50.822;3.280;2023-09-18T02:58:02;20.80;76.90
82901;DHT22;72673;50.822;3.280;2023-09-18T03:00:28;20.60;77.80
82901;DHT22;72673;50.822;3.280;2023-09-18T03:02:54;20.50;78.00
82901;DHT22;72673;50.822;3.280;2023-09-18T03:05:20;20.60;77.30
82901;DHT22;72673;50.822;3.280;2023-09-18T03:07:45;20.60;77.40
82901;DHT22;72673;50.822;3.280;2023-09-18T03:10:11;20.70;76.90
82901;DHT22;72673;50.822;3.280;2023-09-18T03:12:40;20.70;77.00
82901;DHT22;72673;50.822;3.280;2023-09-18T03:15:06;20.70;77.20
82901;DHT22;72673;50.822;3.280;2023-09-18T03:17:32;20.70;76.50
82901;DHT22;72673;50.822;3.280;2023-09-18T03:19:58;20.60;76.70
82901;DHT22;72673;50.822;3.280;2023-09-18T03:22:24;20.50;77.70
82901;DHT22;72673;50.822;3.280;2023-09-18T03:24:50;20.30;78.10
82901;DHT22;72673;50.822;3.280;2023-09-18T03:27:15;20.20;79.00
82901;DHT22;72673;50.822;3.280;2023-09-18T03:29:41;20.10;79.40
82901;DHT22;72673;50.822;3.280;2023-09-18T03:32:07;20.00;79.90
82901;DHT22;72673;50.822;3.280;2023-09-18T03:34:32;20.00;80.20
82901;DHT22;72673;50.822;3.280;2023-09-18T03:36:58;20.00;80.00
82901;DHT22;72673;50.822;3.280;2023-09-18T03:39:24;20.20;79.50
82901;DHT22;72673;50.822;3.280;2023-09-18T03:41:49;20.30;78.50
82901;DHT22;72673;50.822;3.280;2023-09-18T03:44:15;20.30;78.70
82901;DHT22;72673;50.822;3.280;2023-09-18T03:46:41;20.20;78.80
82901;DHT22;72673;50.822;3.280;2023-09-18T03:49:07;20.00;79.50
82901;DHT22;72673;50.822;3.280;2023-09-18T03:51:33;19.90;79.90
82901;DHT22;72673;50.822;3.280;2023-09-18T03:53:58;20.00;79.70
82901;DHT22;72673;50.822;3.280;2023-09-18T03:56:24;19.90;79.80
82901;DHT22;72673;50.822;3.280;2023-09-18T03:58:50;19.90;80.00
82901;DHT22;72673;50.822;3.280;2023-09-18T04:01:16;19.90;80.00
82901;DHT22;72673;50.822;3.280;2023-09-18T04:03:42;19.90;79.60
82901;DHT22;72673;50.822;3.280;2023-09-18T04:06:08;19.90;79.20
82901;DHT22;72673;50.822;3.280;2023-09-18T04:08:33;20.00;79.00
82901;DHT22;72673;50.822;3.280;2023-09-18T04:10:59;19.80;79.50
82901;DHT22;72673;50.822;3.280;2023-09-18T04:13:25;19.90;79.20
82901;DHT22;72673;50.822;3.280;2023-09-18T04:15:51;19.70;79.60
82901;DHT22;72673;50.822;3.280;2023-09-18T04:18:22;19.70;79.70
82901;DHT22;72673;50.822;3.280;2023-09-18T04:20:48;19.70;79.40
82901;DHT22;72673;50.822;3.280;2023-09-18T04:23:24;19.70;79.30
82901;DHT22;72673;50.822;3.280;2023-09-18T04:25:51;19.80;78.70
82901;DHT22;72673;50.822;3.280;2023-09-18T04:28:18;19.70;79.00
82901;DHT22;72673;50.822;3.280;2023-09-18T04:30:44;19.60;79.40
82901;DHT22;72673;50.822;3.280;2023-09-18T04:33:10;19.60;79.70
82901;DHT22;72673;50.822;3.280;2023-09-18T04:35:38;19.50;80.90
82901;DHT22;72673;50.822;3.280;2023-09-18T04:38:06;19.60;80.70
82901;DHT22;72673;50.822;3.280;2023-09-18T04:40:32;19.50;79.90
82901;DHT22;72673;50.822;3.280;2023-09-18T04:42:58;19.40;80.40
82901;DHT22;72673;50.822;3.280;2023-09-18T04:45:25;19.30;80.70
82901;DHT22;72673;50.822;3.280;2023-09-18T04:47:51;19.40;80.30
82901;DHT22;72673;50.822;3.280;2023-09-18T04:50:17;19.30;80.80
82901;DHT22;72673;50.822;3.280;2023-09-18T04:52:42;19.20;81.10
82901;DHT22;72673;50.822;3.280;2023-09-18T04:55:10;19.30;80.90
82901;DHT22;72673;50.822;3.280;2023-09-18T04:57:37;19.30;80.80
82901;DHT22;72673;50.822;3.280;2023-09-18T05:00:03;19.20;82.40
82901;DHT22;72673;50.822;3.280;2023-09-18T05:02:33;19.10;81.50
82901;DHT22;72673;50.822;3.280;2023-09-18T05:05:00;19.10;81.80
82901;DHT22;72673;50.822;3.280;2023-09-18T05:07:26;19.00;82.30
82901;DHT22;72673;50.822;3.280;2023-09-18T05:09:52;19.10;81.80
82901;DHT22;72673;50.822;3.280;2023-09-18T05:12:18;19.20;80.90
82901;DHT22;72673;50.822;3.280;2023-09-18T05:14:44;19.20;80.90
82901;DHT22;72673;50.822;3.280;2023-09-18T05:17:15;19.30;80.80
82901;DHT22;72673;50.822;3.280;2023-09-18T05:19:41;19.10;81.30
82901;DHT22;72673;50.822;3.280;2023-09-18T05:22:08;19.30;80.40
82901;DHT22;72673;50.822;3.280;2023-09-18T05:24:37;19.40;80.00
82901;DHT22;72673;50.822;3.280;2023-09-18T05:27:02;19.40;79.80
82901;DHT22;72673;50.822;3.280;2023-09-18T05:29:28;19.30;80.30
82901;DHT22;72673;50.822;3.280;2023-09-18T05:31:54;19.10;81.50
82901;DHT22;72673;50.822;3.280;2023-09-18T05:34:20;18.90;82.40
82901;DHT22;72673;50.822;3.280;2023-09-18T05:36:45;19.10;81.20
82901;DHT22;72673;50.822;3.280;2023-09-18T05:39:11;19.20;81.10
82901;DHT22;72673;50.822;3.280;2023-09-18T05:41:41;19.10;81.40
82901;DHT22;72673;50.822;3.280;2023-09-18T05:44:07;19.20;80.90
82901;DHT22;72673;50.822;3.280;2023-09-18T05:46:35;19.20;81.10
82901;DHT22;72673;50.822;3.280;2023-09-18T05:49:02;19.20;80.60
82901;DHT22;72673;50.822;3.280;2023-09-18T05:51:28;19.10;81.00
82901;DHT22;72673;50.822;3.280;2023-09-18T05:53:54;19.00;81.50
82901;DHT22;72673;50.822;3.280;2023-09-18T05:56:19;19.10;81.40
82901;DHT22;72673;50.822;3.280;2023-09-18T05:58:45;19.10;81.00
82901;DHT22;72673;50.822;3.280;2023-09-18T06:01:11;19.10;81.20
82901;DHT22;72673;50.822;3.280;2023-09-18T06:03:36;19.10;81.20
82901;DHT22;72673;50.822;3.280;2023-09-18T06:06:03;19.10;81.20
82901;DHT22;72673;50.822;3.280;2023-09-18T06:08:29;19.00;81.60
82901;DHT22;72673;50.822;3.280;2023-09-18T06:10:56;19.00;81.50
82901;DHT22;72673;50.822;3.280;2023-09-18T06:13:24;19.00;81.60
82901;DHT22;72673;50.822;3.280;2023-09-18T06:15:51;18.90;82.10
82901;DHT22;72673;50.822;3.280;2023-09-18T06:18:18;18.80;82.40
82901;DHT22;72673;50.822;3.280;2023-09-18T06:20:46;18.70;82.90
82901;DHT22;72673;50.822;3.280;2023-09-18T06:23:12;18.60;83.80
82901;DHT22;72673;50.822;3.280;2023-09-18T06:25:38;18.60;83.40
82901;DHT22;72673;50.822;3.280;2023-09-18T06:28:04;18.70;82.90
82901;DHT22;72673;50.822;3.280;2023-09-18T06:30:31;18.70;83.50
82901;DHT22;72673;50.822;3.280;2023-09-18T06:32:58;18.80;83.00
82901;DHT22;72673;50.822;3.280;2023-09-18T06:35:24;18.90;82.40
82901;DHT22;72673;50.822;3.280;2023-09-18T06:37:50;19.00;82.10
82901;DHT22;72673;50.822;3.280;2023-09-18T06:40:15;18.90;82.40
82901;DHT22;72673;50.822;3.280;2023-09-18T06:42:41;18.80;82.80
82901;DHT22;72673;50.822;3.280;2023-09-18T06:45:07;18.90;82.30
82901;DHT22;72673;50.822;3.280;2023-09-18T06:47:33;19.00;82.30
82901;DHT22;72673;50.822;3.280;2023-09-18T06:49:59;18.90;82.50
82901;DHT22;72673;50.822;3.280;2023-09-18T06:52:30;19.00;82.10
82901;DHT22;72673;50.822;3.280;2023-09-18T06:54:55;19.10;81.80
82901;DHT22;72673;50.822;3.280;2023-09-18T06:57:23;19.00;82.30
82901;DHT22;72673;50.822;3.280;2023-09-18T06:59:49;19.10;81.90
82901;DHT22;72673;50.822;3.280;2023-09-18T07:02:15;19.20;81.00
82901;DHT22;72673;50.822;3.280;2023-09-18T07:04:41;19.30;80.40
82901;DHT22;72673;50.822;3.280;2023-09-18T07:07:12;19.40;80.50
82901;DHT22;72673;50.822;3.280;2023-09-18T07:09:39;19.50;79.40
82901;DHT22;72673;50.822;3.280;2023-09-18T07:12:06;19.60;79.40
82901;DHT22;72673;50.822;3.280;2023-09-18T07:14:31;19.60;79.30
82901;DHT22;72673;50.822;3.280;2023-09-18T07:16:57;19.60;79.10
82901;DHT22;72673;50.822;3.280;2023-09-18T07:19:23;19.70;78.70
82901;DHT22;72673;50.822;3.280;2023-09-18T07:21:48;19.80;78.10
82901;DHT22;72673;50.822;3.280;2023-09-18T07:24:15;19.90;77.90
82901;DHT22;72673;50.822;3.280;2023-09-18T07:26:45;20.00;77.50
82901;DHT22;72673;50.822;3.280;2023-09-18T07:29:12;20.00;77.20
82901;DHT22;72673;50.822;3.280;2023-09-18T07:31:39;20.00;77.00
82901;DHT22;72673;50.822;3.280;2023-09-18T07:34:06;20.10;77.40
82901;DHT22;72673;50.822;3.280;2023-09-18T07:36:31;20.00;77.00
82901;DHT22;72673;50.822;3.280;2023-09-18T07:38:57;19.90;77.40
82901;DHT22;72673;50.822;3.280;2023-09-18T07:41:23;20.00;76.80
82901;DHT22;72673;50.822;3.280;2023-09-18T07:43:48;19.90;77.10
82901;DHT22;72673;50.822;3.280;2023-09-18T07:46:14;19.90;77.60
82901;DHT22;72673;50.822;3.280;2023-09-18T07:48:40;19.80;77.60
82901;DHT22;72673;50.822;3.280;2023-09-18T07:51:05;19.90;77.20
82901;DHT22;72673;50.822;3.280;2023-09-18T07:53:31;20.00;77.00
82901;DHT22;72673;50.822;3.280;2023-09-18T07:55:58;20.00;76.70
82901;DHT22;72673;50.822;3.280;2023-09-18T07:58:25;20.10;76.50
82901;DHT22;72673;50.822;3.280;2023-09-18T08:00:55;20.30;75.40
82901;DHT22;72673;50.822;3.280;2023-09-18T08:03:21;20.30;75.10
82901;DHT22;72673;50.822;3.280;2023-09-18T08:05:52;20.20;74.90
82901;DHT22;72673;50.822;3.280;2023-09-18T08:08:19;20.20;74.20
82901;DHT22;72673;50.822;3.280;2023-09-18T08:10:52;20.20;74.90
82901;DHT22;72673;50.822;3.280;2023-09-18T08:13:18;20.30;74.60
82901;DHT22;72673;50.822;3.280;2023-09-18T08:15:45;20.50;73.50
82901;DHT22;72673;50.822;3.280;2023-09-18T08:18:12;20.50;73.90
82901;DHT22;72673;50.822;3.280;2023-09-18T08:20:41;20.50;74.60
82901;DHT22;72673;50.822;3.280;2023-09-18T08:23:08;20.70;73.10
82901;DHT22;72673;50.822;3.280;2023-09-18T08:25:34;20.80;72.70
82901;DHT22;72673;50.822;3.280;2023-09-18T08:28:00;21.00;71.80
82901;DHT22;72673;50.822;3.280;2023-09-18T08:30:26;20.90;71.90
82901;DHT22;72673;50.822;3.280;2023-09-18T08:32:51;21.00;71.30
82901;DHT22;72673;50.822;3.280;2023-09-18T08:35:17;20.90;71.00
82901;DHT22;72673;50.822;3.280;2023-09-18T08:37:43;20.90;71.30
82901;DHT22;72673;50.822;3.280;2023-09-18T08:40:13;20.70;71.80
82901;DHT22;72673;50.822;3.280;2023-09-18T08:42:44;20.50;72.80
82901;DHT22;72673;50.822;3.280;2023-09-18T08:45:31;20.60;73.20
82901;DHT22;72673;50.822;3.280;2023-09-18T08:47:59;20.50;73.60
82901;DHT22;72673;50.822;3.280;2023-09-18T08:50:25;20.40;73.80
82901;DHT22;72673;50.822;3.280;2023-09-18T08:52:52;20.30;74.20
82901;DHT22;72673;50.822;3.280;2023-09-18T08:55:19;20.00;75.50
82901;DHT22;72673;50.822;3.280;2023-09-18T08:57:46;20.00;75.70
82901;DHT22;72673;50.822;3.280;2023-09-18T09:00:12;20.00;76.20
82901;DHT22;72673;50.822;3.280;2023-09-18T09:02:43;20.00;76.10
82901;DHT22;72673;50.822;3.280;2023-09-18T09:05:09;20.00;76.20
82901;DHT22;72673;50.822;3.280;2023-09-18T09:07:35;20.10;75.50
82901;DHT22;72673;50.822;3.280;2023-09-18T09:10:01;20.00;76.00
82901;DHT22;72673;50.822;3.280;2023-09-18T09:12:58;20.00;76.40
82901;DHT22;72673;50.822;3.280;2023-09-18T09:15:26;20.10;75.60
82901;DHT22;72673;50.822;3.280;2023-09-18T09:18:05;20.10;75.40
82901;DHT22;72673;50.822;3.280;2023-09-18T09:20:32;20.20;75.10
82901;DHT22;72673;50.822;3.280;2023-09-18T09:23:01;20.40;74.50
82901;DHT22;72673;50.822;3.280;2023-09-18T09:25:29;20.60;73.80
82901;DHT22;72673;50.822;3.280;2023-09-18T09:27:58;20.90;72.50
82901;DHT22;72673;50.822;3.280;2023-09-18T09:30:26;21.60;70.40
82901;DHT22;72673;50.822;3.280;2023-09-18T09:32:54;22.40;66.80
82901;DHT22;72673;50.822;3.280;2023-09-18T09:35:28;22.20;67.00
82901;DHT22;72673;50.822;3.280;2023-09-18T09:37:59;22.10;67.50
82901;DHT22;72673;50.822;3.280;2023-09-18T09:40:27;22.20;66.70
82901;DHT22;72673;50.822;3.280;2023-09-18T09:42:54;22.60;65.30
82901;DHT22;72673;50.822;3.280;2023-09-18T09:45:29;22.80;65.20
82901;DHT22;72673;50.822;3.280;2023-09-18T09:47:57;23.50;61.30
82901;DHT22;72673;50.822;3.280;2023-09-18T09:50:23;23.90;60.80
82901;DHT22;72673;50.822;3.280;2023-09-18T09:52:52;24.10;59.70
82901;DHT22;72673;50.822;3.280;2023-09-18T09:57:51;23.60;60.90
82901;DHT22;72673;50.822;3.280;2023-09-18T10:00:17;23.10;62.50
82901;DHT22;72673;50.822;3.280;2023-09-18T10:03:00;23.30;61.20
82901;DHT22;72673;50.822;3.280;2023-09-18T10:05:40;23.20;61.20
82901;DHT22;72673;50.822;3.280;2023-09-18T10:08:17;23.10;61.60
82901;DHT22;72673;50.822;3.280;2023-09-18T10:10:47;23.00;62.00
82901;DHT22;72673;50.822;3.280;2023-09-18T10:13:33;23.60;60.70
82901;DHT22;72673;50.822;3.280;2023-09-18T10:16:04;23.60;59.80
82901;DHT22;72673;50.822;3.280;2023-09-18T10:18:42;23.90;58.40
82901;DHT22;72673;50.822;3.280;2023-09-18T10:21:26;24.60;56.30
82901;DHT22;72673;50.822;3.280;2023-09-18T10:24:24;24.40;56.50
82901;DHT22;72673;50.822;3.280;2023-09-18T10:26:58;24.20;56.80
82901;DHT22;72673;50.822;3.280;2023-09-18T10:29:29;24.00;57.60
82901;DHT22;72673;50.822;3.280;2023-09-18T10:31:55;23.90;58.30
82901;DHT22;72673;50.822;3.280;2023-09-18T10:34:23;23.60;59.50
82901;DHT22;72673;50.822;3.280;2023-09-18T10:36:53;23.70;59.40
82901;DHT22;72673;50.822;3.280;2023-09-18T10:39:24;23.60;58.90
82901;DHT22;72673;50.822;3.280;2023-09-18T10:41:53;23.80;58.40
82901;DHT22;72673;50.822;3.280;2023-09-18T10:44:19;24.70;56.60
82901;DHT22;72673;50.822;3.280;2023-09-18T10:46:46;24.50;55.30
82901;DHT22;72673;50.822;3.280;2023-09-18T10:49:12;24.60;55.20
82901;DHT22;72673;50.822;3.280;2023-09-18T10:51:38;25.50;52.50
82901;DHT22;72673;50.822;3.280;2023-09-18T10:54:13;26.80;50.00
82901;DHT22;72673;50.822;3.280;2023-09-18T10:56:43;27.70;46.90
82901;DHT22;72673;50.822;3.280;2023-09-18T10:59:09;28.20;44.20
82901;DHT22;72673;50.822;3.280;2023-09-18T11:01:36;27.40;45.20
82901;DHT22;72673;50.822;3.280;2023-09-18T11:04:04;26.70;48.50
82901;DHT22;72673;50.822;3.280;2023-09-18T11:09:27;26.20;49.00
82901;DHT22;72673;50.822;3.280;2023-09-18T11:17:38;24.30;54.10
82901;DHT22;72673;50.822;3.280;2023-09-18T11:22:39;26.00;50.70
82901;DHT22;72673;50.822;3.280;2023-09-18T11:28:03;28.00;44.30
82901;DHT22;72673;50.822;3.280;2023-09-18T11:30:36;29.20;41.30
82901;DHT22;72673;50.822;3.280;2023-09-18T11:33:05;29.00;41.70
82901;DHT22;72673;50.822;3.280;2023-09-18T11:35:35;29.40;40.90
82901;DHT22;72673;50.822;3.280;2023-09-18T11:38:09;29.00;41.80
82901;DHT22;72673;50.822;3.280;2023-09-18T11:40:37;27.90;43.10
82901;DHT22;72673;50.822;3.280;2023-09-18T11:43:25;27.60;43.60
82901;DHT22;72673;50.822;3.280;2023-09-18T11:45:56;27.20;45.40
82901;DHT22;72673;50.822;3.280;2023-09-18T11:48:23;27.10;44.50
82901;DHT22;72673;50.822;3.280;2023-09-18T11:50:50;27.10;45.00
82901;DHT22;72673;50.822;3.280;2023-09-18T11:53:17;27.40;43.90
82901;DHT22;72673;50.822;3.280;2023-09-18T11:55:44;26.50;45.50
82901;DHT22;72673;50.822;3.280;2023-09-18T11:58:10;26.10;46.10
82901;DHT22;72673;50.822;3.280;2023-09-18T12:00:36;26.20;46.80
82901;DHT22;72673;50.822;3.280;2023-09-18T12:03:22;26.60;47.60
82901;DHT22;72673;50.822;3.280;2023-09-18T12:06:09;27.40;44.70
82901;DHT22;72673;50.822;3.280;2023-09-18T12:08:39;27.10;43.30
82901;DHT22;72673;50.822;3.280;2023-09-18T12:11:06;27.10;44.20
82901;DHT22;72673;50.822;3.280;2023-09-18T12:13:32;27.20;44.60
82901;DHT22;72673;50.822;3.280;2023-09-18T12:16:02;27.90;42.50
82901;DHT22;72673;50.822;3.280;2023-09-18T12:18:31;28.90;40.50
82901;DHT22;72673;50.822;3.280;2023-09-18T12:20:58;28.70;40.60
82901;DHT22;72673;50.822;3.280;2023-09-18T12:23:26;29.30;39.30
82901;DHT22;72673;50.822;3.280;2023-09-18T12:26:00;29.40;39.00
82901;DHT22;72673;50.822;3.280;2023-09-18T12:28:26;29.30;39.20
82901;DHT22;72673;50.822;3.280;2023-09-18T12:30:54;29.00;38.90
82901;DHT22;72673;50.822;3.280;2023-09-18T12:33:22;28.20;40.00
82901;DHT22;72673;50.822;3.280;2023-09-18T12:35:50;26.80;43.70
82901;DHT22;72673;50.822;3.280;2023-09-18T12:38:18;26.40;45.30
82901;DHT22;72673;50.822;3.280;2023-09-18T12:40:50;26.10;45.50
82901;DHT22;72673;50.822;3.280;2023-09-18T12:43:17;25.40;49.00
82901;DHT22;72673;50.822;3.280;2023-09-18T12:45:43;24.90;51.20
82901;DHT22;72673;50.822;3.280;2023-09-18T12:48:09;24.50;52.00
82901;DHT22;72673;50.822;3.280;2023-09-18T12:50:36;24.20;52.10
82901;DHT22;72673;50.822;3.280;2023-09-18T12:53:14;23.90;52.50
82901;DHT22;72673;50.822;3.280;2023-09-18T12:55:41;23.60;53.40
82901;DHT22;72673;50.822;3.280;2023-09-18T12:58:11;21.10;72.00
82901;DHT22;72673;50.822;3.280;2023-09-18T13:00:36;19.40;83.50
82901;DHT22;72673;50.822;3.280;2023-09-18T13:03:05;18.90;84.30
82901;DHT22;72673;50.822;3.280;2023-09-18T13:05:31;18.90;86.10
82901;DHT22;72673;50.822;3.280;2023-09-18T13:08:03;18.90;85.80
82901;DHT22;72673;50.822;3.280;2023-09-18T13:10:40;19.20;85.50
82901;DHT22;72673;50.822;3.280;2023-09-18T13:13:05;19.50;84.10
82901;DHT22;72673;50.822;3.280;2023-09-18T13:15:32;19.70;82.70
82901;DHT22;72673;50.822;3.280;2023-09-18T13:18:00;19.60;83.50
82901;DHT22;72673;50.822;3.280;2023-09-18T13:20:27;19.70;81.90
82901;DHT22;72673;50.822;3.280;2023-09-18T13:22:58;19.70;82.10
82901;DHT22;72673;50.822;3.280;2023-09-18T13:25:29;19.50;83.70
82901;DHT22;72673;50.822;3.280;2023-09-18T13:27:55;19.20;83.60
82901;DHT22;72673;50.822;3.280;2023-09-18T13:30:21;19.20;83.60
82901;DHT22;72673;50.822;3.280;2023-09-18T13:32:49;19.30;85.80
82901;DHT22;72673;50.822;3.280;2023-09-18T13:35:18;19.60;81.10
82901;DHT22;72673;50.822;3.280;2023-09-18T13:37:45;20.50;78.60
82901;DHT22;72673;50.822;3.280;2023-09-18T13:40:11;21.50;75.80
82901;DHT22;72673;50.822;3.280;2023-09-18T13:42:40;21.50;73.90
82901;DHT22;72673;50.822;3.280;2023-09-18T13:45:06;20.90;76.30
82901;DHT22;72673;50.822;3.280;2023-09-18T13:47:33;20.70;77.40
82901;DHT22;72673;50.822;3.280;2023-09-18T13:50:03;20.60;76.40
82901;DHT22;72673;50.822;3.280;2023-09-18T13:52:32;21.20;73.30
82901;DHT22;72673;50.822;3.280;2023-09-18T13:54:58;22.30;69.30
82901;DHT22;72673;50.822;3.280;2023-09-18T13:57:24;22.90;64.60
82901;DHT22;72673;50.822;3.280;2023-09-18T13:59:51;23.90;62.40
82901;DHT22;72673;50.822;3.280;2023-09-18T14:02:17;25.00;58.60
82901;DHT22;72673;50.822;3.280;2023-09-18T14:04:43;24.90;55.70
82901;DHT22;72673;50.822;3.280;2023-09-18T14:07:11;24.50;58.40
82901;DHT22;72673;50.822;3.280;2023-09-18T14:09:37;24.70;57.40
82901;DHT22;72673;50.822;3.280;2023-09-18T14:12:04;24.80;55.50
82901;DHT22;72673;50.822;3.280;2023-09-18T14:14:31;24.80;55.30
82901;DHT22;72673;50.822;3.280;2023-09-18T14:16:58;24.30;57.60
82901;DHT22;72673;50.822;3.280;2023-09-18T14:19:23;23.50;60.00
82901;DHT22;72673;50.822;3.280;2023-09-18T14:21:49;22.90;61.70
82901;DHT22;72673;50.822;3.280;2023-09-18T14:24:16;23.10;61.60
82901;DHT22;72673;50.822;3.280;2023-09-18T14:26:48;23.10;60.80
82901;DHT22;72673;50.822;3.280;2023-09-18T14:29:14;22.70;62.40
82901;DHT22;72673;50.822;3.280;2023-09-18T14:31:40;22.50;61.80
82901;DHT22;72673;50.822;3.280;2023-09-18T14:34:06;22.90;61.50
82901;DHT22;72673;50.822;3.280;2023-09-18T14:36:32;23.70;58.80
82901;DHT22;72673;50.822;3.280;2023-09-18T14:39:01;24.20;55.70
82901;DHT22;72673;50.822;3.280;2023-09-18T14:41:27;24.00;54.50
82901;DHT22;72673;50.822;3.280;2023-09-18T14:43:53;24.20;54.50
82901;DHT22;72673;50.822;3.280;2023-09-18T14:46:19;24.50;52.90
82901;DHT22;72673;50.822;3.280;2023-09-18T14:48:46;24.60;51.50
82901;DHT22;72673;50.822;3.280;2023-09-18T14:51:12;24.70;51.80
82901;DHT22;72673;50.822;3.280;2023-09-18T14:53:37;25.10;49.80
82901;DHT22;72673;50.822;3.280;2023-09-18T14:56:03;25.60;50.10
82901;DHT22;72673;50.822;3.280;2023-09-18T14:58:33;25.30;50.00
82901;DHT22;72673;50.822;3.280;2023-09-18T15:00:59;24.60;52.80
82901;DHT22;72673;50.822;3.280;2023-09-18T15:03:25;25.50;51.00
82901;DHT22;72673;50.822;3.280;2023-09-18T15:05:51;26.10;48.80
82901;DHT22;72673;50.822;3.280;2023-09-18T15:08:18;25.40;49.40
82901;DHT22;72673;50.822;3.280;2023-09-18T15:10:45;24.50;52.20
82901;DHT22;72673;50.822;3.280;2023-09-18T15:13:11;24.00;54.00
82901;DHT22;72673;50.822;3.280;2023-09-18T15:15:37;24.30;53.70
82901;DHT22;72673;50.822;3.280;2023-09-18T15:18:03;24.40;52.50
82901;DHT22;72673;50.822;3.280;2023-09-18T15:20:29;23.50;56.10
82901;DHT22;72673;50.822;3.280;2023-09-18T15:22:54;23.20;56.90
82901;DHT22;72673;50.822;3.280;2023-09-18T15:25:21;22.80;57.90
82901;DHT22;72673;50.822;3.280;2023-09-18T15:27:48;22.80;58.50
82901;DHT22;72673;50.822;3.280;2023-09-18T15:30:13;23.60;56.30
82901;DHT22;72673;50.822;3.280;2023-09-18T15:32:51;23.50;55.80
82901;DHT22;72673;50.822;3.280;2023-09-18T15:35:22;24.60;52.80
82901;DHT22;72673;50.822;3.280;2023-09-18T15:37:49;24.50;52.70
82901;DHT22;72673;50.822;3.280;2023-09-18T15:40:16;23.80;54.30
82901;DHT22;72673;50.822;3.280;2023-09-18T15:42:44;23.30;55.90
82901;DHT22;72673;50.822;3.280;2023-09-18T15:45:11;22.90;57.10
82901;DHT22;72673;50.822;3.280;2023-09-18T15:47:40;22.60;58.40
82901;DHT22;72673;50.822;3.280;2023-09-18T15:50:08;22.50;58.90
82901;DHT22;72673;50.822;3.280;2023-09-18T15:52:34;22.30;59.40